sensor_id;sensor_type;location;lat;lon;timestamp;P1;durP1;ratioP1;P2;durP2;ratioP2
52508;SDS011;38420;53.150;6.370;2024-01-30T00:01:12;20.52;;;11.93;;
52508;SDS011;38420;53.150;6.370;2024-01-30T00:03:38;24.95;;;11.93;;
52508;SDS011;38420;53.150;6.370;2024-01-30T00:06:04;23.55;;;12.60;;
52508;SDS011;38420;53.150;6.370;2024-01-30T00:08:30;21.58;;;13.20;;
52508;SDS011;38420;53.150;6.370;2024-01-30T00:10:55;23.80;;;12.23;;
52508;SDS011;38420;53.150;6.370;2024-01-30T00:13:21;23.08;;;11.68;;
52508;SDS011;38420;53.150;6.370;2024-01-30T00:15:47;21.85;;;12.50;;
52508;SDS011;38420;53.150;6.370;2024-01-30T00:18:13;21.40;;;12.15;;
52508;SDS011;38420;53.150;6.370;2024-01-30T00:20:39;21.73;;;10.90;;
52508;SDS011;38420;53.150;6.370;2024-01-30T00:23:05;23.67;;;11.00;;
52508;SDS011;38420;53.150;6.370;2024-01-30T00:25:31;20.05;;;11.13;;
52508;SDS011;38420;53.150;6.370;2024-01-30T00:27:58;22.85;;;12.13;;
52508;SDS011;38420;53.150;6.370;2024-01-30T00:30:23;20.02;;;11.48;;
52508;SDS011;38420;53.150;6.370;2024-01-30T00:32:49;21.02;;;11.40;;
52508;SDS011;38420;53.150;6.370;2024-01-30T00:35:15;20.10;;;11.00;;
52508;SDS011;38420;53.150;6.370;2024-01-30T00:37:40;19.88;;;11.77;;
52508;SDS011;38420;53.150;6.370;2024-01-30T00:40:06;21.10;;;11.75;;
52508;SDS011;38420;53.150;6.370;2024-01-30T00:42:32;21.80;;;14.13;;
52508;SDS011;38420;53.150;6.370;2024-01-30T00:44:58;21.48;;;14.18;;
52508;SDS011;38420;53.150;6.370;2024-01-30T00:47:24;23.73;;;17.25;;
52508;SDS011;38420;53.150;6.370;2024-01-30T00:49:49;22.63;;;15.98;;
52508;SDS011;38420;53.150;6.370;2024-01-30T00:52:15;20.98;;;14.80;;
52508;SDS011;38420;53.150;6.370;2024-01-30T00:54:40;23.13;;;16.02;;
52508;SDS011;38420;53.150;6.370;2024-01-30T00:57:06;28.40;;;14.95;;
52508;SDS011;38420;53.150;6.370;2024-01-30T00:59:32;23.85;;;15.20;;
52508;SDS011;38420;53.150;6.370;2024-01-30T01:01:58;24.85;;;14.15;;
52508;SDS011;38420;53.150;6.370;2024-01-30T01:04:24;23.23;;;14.40;;
52508;SDS011;38420;53.150;6.370;2024-01-30T01:06:51;25.85;;;15.65;;
52508;SDS011;38420;53.150;6.370;2024-01-30T01:09:17;25.10;;;14.85;;
52508;SDS011;38420;53.150;6.370;2024-01-30T01:11:43;25.80;;;15.70;;
52508;SDS011;38420;53.150;6.370;2024-01-30T01:14:08;24.50;;;16.42;;
52508;SDS011;38420;53.150;6.370;2024-01-30T01:16:34;23.20;;;15.90;;
52508;SDS011;38420;53.150;6.370;2024-01-30T01:19:00;24.20;;;16.70;;
52508;SDS011;38420;53.150;6.370;2024-01-30T01:21:26;21.50;;;15.98;;
52508;SDS011;38420;53.150;6.370;2024-01-30T01:23:52;27.70;;;16.67;;
52508;SDS011;38420;53.150;6.370;2024-01-30T01:26:17;20.88;;;16.08;;
52508;SDS011;38420;53.150;6.370;2024-01-30T01:28:43;25.80;;;18.17;;
52508;SDS011;38420;53.150;6.370;2024-01-30T01:31:08;24.33;;;16.45;;
52508;SDS011;38420;53.150;6.370;2024-01-30T01:33:34;27.70;;;17.23;;
52508;SDS011;38420;53.150;6.370;2024-01-30T01:36:02;24.88;;;16.02;;
52508;SDS011;38420;53.150;6.370;2024-01-30T01:38:28;26.75;;;15.30;;
52508;SDS011;38420;53.150;6.370;2024-01-30T01:40:54;28.33;;;16.50;;
52508;SDS011;38420;53.150;6.370;2024-01-30T01:43:19;22.52;;;16.90;;
52508;SDS011;38420;53.150;6.370;2024-01-30T01:45:45;23.98;;;16.40;;
52508;SDS011;38420;53.150;6.370;2024-01-30T01:48:11;21.42;;;15.88;;
52508;SDS011;38420;53.150;6.370;2024-01-30T01:50:37;26.08;;;16.98;;
52508;SDS011;38420;53.150;6.370;2024-01-30T01:53:05;22.40;;;16.83;;
52508;SDS011;38420;53.150;6.370;2024-01-30T01:55:32;22.73;;;17.73;;
52508;SDS011;38420;53.150;6.370;2024-01-30T01:57:59;26.60;;;18.10;;
52508;SDS011;38420;53.150;6.370;2024-01-30T02:00:25;25.50;;;19.08;;
52508;SDS011;38420;53.150;6.370;2024-01-30T02:02:51;27.52;;;18.90;;
52508;SDS011;38420;53.150;6.370;2024-01-30T02:05:19;26.75;;;20.02;;
52508;SDS011;38420;53.150;6.370;2024-01-30T02:07:45;24.92;;;19.58;;
52508;SDS011;38420;53.150;6.370;2024-01-30T02:10:11;26.02;;;19.73;;
52508;SDS011;38420;53.150;6.370;2024-01-30T02:12:37;28.30;;;19.75;;
52508;SDS011;38420;53.150;6.370;2024-01-30T02:15:03;28.95;;;21.90;;
52508;SDS011;38420;53.150;6.370;2024-01-30T02:17:30;28.67;;;22.50;;
52508;SDS011;38420;53.150;6.370;2024-01-30T02:19:55;27.42;;;21.05;;
52508;SDS011;38420;53.150;6.370;2024-01-30T02:22:21;28.85;;;22.33;;
52508;SDS011;38420;53.150;6.370;2024-01-30T02:24:48;28.48;;;24.23;;
52508;SDS011;38420;53.150;6.370;2024-01-30T02:27:14;30.15;;;23.15;;
52508;SDS011;38420;53.150;6.370;2024-01-30T02:29:39;28.05;;;24.95;;
52508;SDS011;38420;53.150;6.370;2024-01-30T02:32:05;31.80;;;23.55;;
52508;SDS011;38420;53.150;6.370;2024-01-30T02:34:31;30.35;;;22.73;;
52508;SDS011;38420;53.150;6.370;2024-01-30T02:36:57;27.60;;;22.63;;
52508;SDS011;38420;53.150;6.370;2024-01-30T02:39:22;32.42;;;23.67;;
52508;SDS011;38420;53.150;6.370;2024-01-30T02:41:48;27.33;;;22.55;;
52508;SDS011;38420;53.150;6.370;2024-01-30T02:44:13;26.67;;;21.52;;
52508;SDS011;38420;53.150;6.370;2024-01-30T02:46:39;28.00;;;20.85;;
52508;SDS011;38420;53.150;6.370;2024-01-30T02:49:05;32.05;;;23.95;;
52508;SDS011;38420;53.150;6.370;2024-01-30T02:51:30;31.15;;;24.45;;
52508;SDS011;38420;53.150;6.370;2024-01-30T02:53:56;28.20;;;23.05;;
52508;SDS011;38420;53.150;6.370;2024-01-30T02:56:21;30.27;;;25.30;;
52508;SDS011;38420;53.150;6.370;2024-01-30T02:58:47;26.52;;;21.35;;
52508;SDS011;38420;53.150;6.370;2024-01-30T03:01:12;28.92;;;24.50;;
52508;SDS011;38420;53.150;6.370;2024-01-30T03:03:38;25.33;;;21.67;;
52508;SDS011;38420;53.150;6.370;2024-01-30T03:06:05;26.25;;;23.45;;
52508;SDS011;38420;53.150;6.370;2024-01-30T03:08:32;27.00;;;22.15;;
52508;SDS011;38420;53.150;6.370;2024-01-30T03:10:57;24.83;;;22.17;;
52508;SDS011;38420;53.150;6.370;2024-01-30T03:13:23;27.48;;;22.45;;
52508;SDS011;38420;53.150;6.370;2024-01-30T03:15:50;28.55;;;22.58;;
52508;SDS011;38420;53.150;6.370;2024-01-30T03:18:15;25.75;;;22.92;;
52508;SDS011;38420;53.150;6.370;2024-01-30T03:20:41;26.48;;;23.63;;
52508;SDS011;38420;53.150;6.370;2024-01-30T03:23:06;27.35;;;24.63;;
52508;SDS011;38420;53.150;6.370;2024-01-30T03:25:32;31.90;;;25.92;;
52508;SDS011;38420;53.150;6.370;2024-01-30T03:27:58;27.75;;;25.00;;
52508;SDS011;38420;53.150;6.370;2024-01-30T03:30:23;27.63;;;24.77;;
52508;SDS011;38420;53.150;6.370;2024-01-30T03:32:49;28.73;;;24.98;;
52508;SDS011;38420;53.150;6.370;2024-01-30T03:35:15;28.42;;;24.02;;
52508;SDS011;38420;53.150;6.370;2024-01-30T03:37:40;27.83;;;24.08;;
52508;SDS011;38420;53.150;6.370;2024-01-30T03:40:06;28.60;;;25.25;;
52508;SDS011;38420;53.150;6.370;2024-01-30T03:42:32;29.10;;;26.10;;
52508;SDS011;38420;53.150;6.370;2024-01-30T03:44:58;33.30;;;30.23;;
52508;SDS011;38420;53.150;6.370;2024-01-30T03:47:23;34.35;;;31.25;;
52508;SDS011;38420;53.150;6.370;2024-01-30T03:49:49;38.10;;;34.35;;
52508;SDS011;38420;53.150;6.370;2024-01-30T03:52:15;35.53;;;32.17;;
52508;SDS011;38420;53.150;6.370;2024-01-30T03:54:40;31.00;;;28.15;;
52508;SDS011;38420;53.150;6.370;2024-01-30T03:57:06;28.70;;;26.27;;
52508;SDS011;38420;53.150;6.370;2024-01-30T03:59:31;29.38;;;25.33;;
52508;SDS011;38420;53.150;6.370;2024-01-30T04:01:57;27.90;;;25.27;;
52508;SDS011;38420;53.150;6.370;2024-01-30T04:04:22;24.98;;;22.42;;
52508;SDS011;38420;53.150;6.370;2024-01-30T04:06:48;22.88;;;20.58;;
52508;SDS011;38420;53.150;6.370;2024-01-30T04:09:14;25.10;;;22.48;;
52508;SDS011;38420;53.150;6.370;2024-01-30T04:11:40;24.10;;;19.90;;
52508;SDS011;38420;53.150;6.370;2024-01-30T04:14:05;23.83;;;20.05;;
52508;SDS011;38420;53.150;6.370;2024-01-30T04:16:31;21.95;;;19.60;;
52508;SDS011;38420;53.150;6.370;2024-01-30T04:18:57;22.63;;;18.75;;
52508;SDS011;38420;53.150;6.370;2024-01-30T04:21:23;21.35;;;18.77;;
52508;SDS011;38420;53.150;6.370;2024-01-30T04:23:50;21.38;;;19.13;;
52508;SDS011;38420;53.150;6.370;2024-01-30T04:26:16;21.42;;;16.25;;
52508;SDS011;38420;53.150;6.370;2024-01-30T04:28:42;19.23;;;14.75;;
52508;SDS011;38420;53.150;6.370;2024-01-30T04:31:09;21.85;;;15.93;;
52508;SDS011;38420;53.150;6.370;2024-01-30T04:33:34;25.70;;;15.63;;
52508;SDS011;38420;53.150;6.370;2024-01-30T04:36:00;17.55;;;13.88;;
52508;SDS011;38420;53.150;6.370;2024-01-30T04:38:26;20.95;;;15.15;;
52508;SDS011;38420;53.150;6.370;2024-01-30T04:40:51;22.38;;;13.02;;
52508;SDS011;38420;53.150;6.370;2024-01-30T04:43:17;24.02;;;14.30;;
52508;SDS011;38420;53.150;6.370;2024-01-30T04:45:44;25.10;;;16.08;;
52508;SDS011;38420;53.150;6.370;2024-01-30T04:48:09;20.33;;;14.65;;
52508;SDS011;38420;53.150;6.370;2024-01-30T04:50:35;22.23;;;13.45;;
52508;SDS011;38420;53.150;6.370;2024-01-30T04:53:01;21.20;;;13.77;;
52508;SDS011;38420;53.150;6.370;2024-01-30T04:55:27;21.80;;;12.93;;
52508;SDS011;38420;53.150;6.370;2024-01-30T04:57:52;23.08;;;13.77;;
52508;SDS011;38420;53.150;6.370;2024-01-30T05:00:18;17.75;;;13.13;;
52508;SDS011;38420;53.150;6.370;2024-01-30T05:02:43;22.02;;;14.30;;
52508;SDS011;38420;53.150;6.370;2024-01-30T05:05:09;21.50;;;13.80;;
52508;SDS011;38420;53.150;6.370;2024-01-30T05:07:35;20.25;;;13.10;;
52508;SDS011;38420;53.150;6.370;2024-01-30T05:10:01;21.52;;;15.13;;
52508;SDS011;38420;53.150;6.370;2024-01-30T05:12:28;20.00;;;14.93;;
52508;SDS011;38420;53.150;6.370;2024-01-30T05:14:53;19.88;;;13.25;;
52508;SDS011;38420;53.150;6.370;2024-01-30T05:17:19;24.80;;;15.30;;
52508;SDS011;38420;53.150;6.370;2024-01-30T05:19:45;20.02;;;14.00;;
52508;SDS011;38420;53.150;6.370;2024-01-30T05:22:10;21.42;;;14.38;;
52508;SDS011;38420;53.150;6.370;2024-01-30T05:24:40;19.52;;;14.23;;
52508;SDS011;38420;53.150;6.370;2024-01-30T05:27:07;21.75;;;12.57;;
52508;SDS011;38420;53.150;6.370;2024-01-30T05:29:33;19.05;;;12.25;;
52508;SDS011;38420;53.150;6.370;2024-01-30T05:31:58;24.23;;;13.23;;
52508;SDS011;38420;53.150;6.370;2024-01-30T05:34:24;17.63;;;12.05;;
52508;SDS011;38420;53.150;6.370;2024-01-30T05:36:49;23.58;;;12.57;;
52508;SDS011;38420;53.150;6.370;2024-01-30T05:39:15;16.05;;;11.02;;
52508;SDS011;38420;53.150;6.370;2024-01-30T05:41:41;19.38;;;12.23;;
52508;SDS011;38420;53.150;6.370;2024-01-30T05:44:06;15.48;;;11.77;;
52508;SDS011;38420;53.150;6.370;2024-01-30T05:46:33;20.63;;;12.20;;
52508;SDS011;38420;53.150;6.370;2024-01-30T05:48:58;16.35;;;10.70;;
52508;SDS011;38420;53.150;6.370;2024-01-30T05:51:24;22.75;;;11.52;;
52508;SDS011;38420;53.150;6.370;2024-01-30T05:53:50;18.33;;;10.43;;
52508;SDS011;38420;53.150;6.370;2024-01-30T05:56:15;21.90;;;11.50;;
52508;SDS011;38420;53.150;6.370;2024-01-30T05:58:41;18.13;;;11.32;;
52508;SDS011;38420;53.150;6.370;2024-01-30T06:01:08;17.58;;;10.48;;
52508;SDS011;38420;53.150;6.370;2024-01-30T06:03:34;18.10;;;11.20;;
52508;SDS011;38420;53.150;6.370;2024-01-30T06:05:59;18.88;;;12.30;;
52508;SDS011;38420;53.150;6.370;2024-01-30T06:08:25;19.77;;;12.15;;
52508;SDS011;38420;53.150;6.370;2024-01-30T06:10:50;21.02;;;11.80;;
52508;SDS011;38420;53.150;6.370;2024-01-30T06:13:17;20.10;;;12.38;;
52508;SDS011;38420;53.150;6.370;2024-01-30T06:15:42;21.30;;;12.40;;
52508;SDS011;38420;53.150;6.370;2024-01-30T06:18:08;18.58;;;12.02;;
52508;SDS011;38420;53.150;6.370;2024-01-30T06:20:34;22.77;;;12.30;;
52508;SDS011;38420;53.150;6.370;2024-01-30T06:22:59;18.38;;;11.68;;
52508;SDS011;38420;53.150;6.370;2024-01-30T06:25:25;19.52;;;11.88;;
52508;SDS011;38420;53.150;6.370;2024-01-30T06:27:51;16.30;;;11.13;;
52508;SDS011;38420;53.150;6.370;2024-01-30T06:30:16;22.10;;;11.52;;
52508;SDS011;38420;53.150;6.370;2024-01-30T06:32:43;16.48;;;10.05;;
52508;SDS011;38420;53.150;6.370;2024-01-30T06:35:08;14.30;;;10.32;;
52508;SDS011;38420;53.150;6.370;2024-01-30T06:37:35;20.73;;;10.35;;
52508;SDS011;38420;53.150;6.370;2024-01-30T06:40:01;19.98;;;10.13;;
52508;SDS011;38420;53.150;6.370;2024-01-30T06:42:27;18.05;;;9.63;;
52508;SDS011;38420;53.150;6.370;2024-01-30T06:44:52;18.60;;;9.43;;
52508;SDS011;38420;53.150;6.370;2024-01-30T06:47:18;17.50;;;9.05;;
52508;SDS011;38420;53.150;6.370;2024-01-30T06:49:44;19.55;;;9.23;;
52508;SDS011;38420;53.150;6.370;2024-01-30T06:52:10;16.38;;;9.30;;
52508;SDS011;38420;53.150;6.370;2024-01-30T06:54:36;15.02;;;9.15;;
52508;SDS011;38420;53.150;6.370;2024-01-30T06:57:02;14.57;;;8.43;;
52508;SDS011;38420;53.150;6.370;2024-01-30T06:59:28;18.58;;;8.98;;
52508;SDS011;38420;53.150;6.370;2024-01-30T07:01:53;12.20;;;6.95;;
52508;SDS011;38420;53.150;6.370;2024-01-30T07:04:19;16.08;;;7.05;;
52508;SDS011;38420;53.150;6.370;2024-01-30T07:06:44;16.67;;;8.38;;
52508;SDS011;38420;53.150;6.370;2024-01-30T07:09:10;12.20;;;6.55;;
52508;SDS011;38420;53.150;6.370;2024-01-30T07:11:37;13.02;;;6.90;;
52508;SDS011;38420;53.150;6.370;2024-01-30T07:14:02;14.65;;;7.22;;
52508;SDS011;38420;53.150;6.370;2024-01-30T07:16:30;13.77;;;7.10;;
52508;SDS011;38420;53.150;6.370;2024-01-30T07:18:56;16.65;;;7.57;;
52508;SDS011;38420;53.150;6.370;2024-01-30T07:21:22;14.20;;;7.30;;
52508;SDS011;38420;53.150;6.370;2024-01-30T07:23:52;14.77;;;6.50;;
52508;SDS011;38420;53.150;6.370;2024-01-30T07:26:19;13.75;;;7.63;;
52508;SDS011;38420;53.150;6.370;2024-01-30T07:28:44;9.57;;;6.68;;
52508;SDS011;38420;53.150;6.370;2024-01-30T07:31:10;16.73;;;7.28;;
52508;SDS011;38420;53.150;6.370;2024-01-30T07:33:36;14.25;;;6.88;;
52508;SDS011;38420;53.150;6.370;2024-01-30T07:36:01;10.68;;;6.82;;
52508;SDS011;38420;53.150;6.370;2024-01-30T07:38:27;13.52;;;7.25;;
52508;SDS011;38420;53.150;6.370;2024-01-30T07:40:56;12.02;;;6.00;;
52508;SDS011;38420;53.150;6.370;2024-01-30T07:43:22;9.52;;;6.05;;
52508;SDS011;38420;53.150;6.370;2024-01-30T07:45:47;12.65;;;7.90;;
52508;SDS011;38420;53.150;6.370;2024-01-30T07:48:13;18.88;;;8.05;;
52508;SDS011;38420;53.150;6.370;2024-01-30T07:50:39;11.00;;;6.72;;
52508;SDS011;38420;53.150;6.370;2024-01-30T07:53:04;14.23;;;6.22;;
52508;SDS011;38420;53.150;6.370;2024-01-30T07:55:30;13.35;;;6.90;;
52508;SDS011;38420;53.150;6.370;2024-01-30T07:57:57;12.45;;;6.85;;
52508;SDS011;38420;53.150;6.370;2024-01-30T08:00:26;14.77;;;7.20;;
52508;SDS011;38420;53.150;6.370;2024-01-30T08:02:54;14.43;;;7.75;;
52508;SDS011;38420;53.150;6.370;2024-01-30T08:05:20;10.75;;;6.70;;
52508;SDS011;38420;53.150;6.370;2024-01-30T08:07:47;13.85;;;6.55;;
52508;SDS011;38420;53.150;6.370;2024-01-30T08:10:14;14.23;;;6.68;;
52508;SDS011;38420;53.150;6.370;2024-01-30T08:12:39;10.48;;;5.97;;
52508;SDS011;38420;53.150;6.370;2024-01-30T08:15:05;11.95;;;6.53;;
52508;SDS011;38420;53.150;6.370;2024-01-30T08:17:32;14.05;;;6.63;;
52508;SDS011;38420;53.150;6.370;2024-01-30T08:19:58;13.95;;;7.07;;
52508;SDS011;38420;53.150;6.370;2024-01-30T08:22:23;11.00;;;5.70;;
52508;SDS011;38420;53.150;6.370;2024-01-30T08:24:49;12.98;;;6.72;;
52508;SDS011;38420;53.150;6.370;2024-01-30T08:27:15;12.85;;;6.47;;
52508;SDS011;38420;53.150;6.370;2024-01-30T08:29:40;12.68;;;6.22;;
52508;SDS011;38420;53.150;6.370;2024-01-30T08:32:06;9.98;;;6.00;;
52508;SDS011;38420;53.150;6.370;2024-01-30T08:34:32;11.98;;;6.20;;
52508;SDS011;38420;53.150;6.370;2024-01-30T08:36:58;13.90;;;6.45;;
52508;SDS011;38420;53.150;6.370;2024-01-30T08:39:24;11.50;;;6.22;;
52508;SDS011;38420;53.150;6.370;2024-01-30T08:41:49;14.55;;;6.55;;
52508;SDS011;38420;53.150;6.370;2024-01-30T08:44:15;10.23;;;5.75;;
52508;SDS011;38420;53.150;6.370;2024-01-30T08:46:42;11.18;;;6.35;;
52508;SDS011;38420;53.150;6.370;2024-01-30T08:49:08;12.52;;;6.75;;
52508;SDS011;38420;53.150;6.370;2024-01-30T08:51:34;10.50;;;6.55;;
52508;SDS011;38420;53.150;6.370;2024-01-30T08:53:59;13.52;;;6.90;;
52508;SDS011;38420;53.150;6.370;2024-01-30T08:56:25;12.75;;;6.75;;
52508;SDS011;38420;53.150;6.370;2024-01-30T08:58:50;12.68;;;5.55;;
52508;SDS011;38420;53.150;6.370;2024-01-30T09:01:16;9.30;;;5.50;;
52508;SDS011;38420;53.150;6.370;2024-01-30T09:03:42;11.65;;;6.95;;
52508;SDS011;38420;53.150;6.370;2024-01-30T09:06:10;12.90;;;7.10;;
52508;SDS011;38420;53.150;6.370;2024-01-30T09:08:36;14.93;;;7.05;;
52508;SDS011;38420;53.150;6.370;2024-01-30T09:11:08;15.65;;;7.28;;
52508;SDS011;38420;53.150;6.370;2024-01-30T09:13:37;10.77;;;6.47;;
52508;SDS011;38420;53.150;6.370;2024-01-30T09:16:03;20.33;;;7.07;;
52508;SDS011;38420;53.150;6.370;2024-01-30T09:18:29;12.57;;;6.28;;
52508;SDS011;38420;53.150;6.370;2024-01-30T09:20:55;10.20;;;6.22;;
52508;SDS011;38420;53.150;6.370;2024-01-30T09:23:21;9.30;;;5.80;;
52508;SDS011;38420;53.150;6.370;2024-01-30T09:25:47;13.10;;;6.75;;
52508;SDS011;38420;53.150;6.370;2024-01-30T09:28:12;12.93;;;6.63;;
52508;SDS011;38420;53.150;6.370;2024-01-30T09:30:38;13.82;;;6.85;;
52508;SDS011;38420;53.150;6.370;2024-01-30T09:33:04;11.18;;;6.40;;
52508;SDS011;38420;53.150;6.370;2024-01-30T09:35:30;10.63;;;5.93;;
52508;SDS011;38420;53.150;6.370;2024-01-30T09:37:55;17.98;;;7.45;;
52508;SDS011;38420;53.150;6.370;2024-01-30T09:40:22;14.50;;;7.70;;
52508;SDS011;38420;53.150;6.370;2024-01-30T09:42:48;14.27;;;6.15;;
52508;SDS011;38420;53.150;6.370;2024-01-30T09:45:17;13.80;;;5.50;;
52508;SDS011;38420;53.150;6.370;2024-01-30T09:47:44;26.05;;;7.50;;
52508;SDS011;38420;53.150;6.370;2024-01-30T09:50:11;16.08;;;6.35;;
52508;SDS011;38420;53.150;6.370;2024-01-30T09:52:38;17.17;;;6.72;;
52508;SDS011;38420;53.150;6.370;2024-01-30T09:55:04;14.98;;;6.38;;
52508;SDS011;38420;53.150;6.370;2024-01-30T09:57:31;11.02;;;6.07;;
52508;SDS011;38420;53.150;6.370;2024-01-30T09:59:57;15.32;;;6.43;;
52508;SDS011;38420;53.150;6.370;2024-01-30T10:02:23;11.80;;;6.78;;
52508;SDS011;38420;53.150;6.370;2024-01-30T10:04:49;17.00;;;5.45;;
52508;SDS011;38420;53.150;6.370;2024-01-30T10:07:15;12.40;;;5.47;;
52508;SDS011;38420;53.150;6.370;2024-01-30T10:09:41;10.80;;;5.45;;
52508;SDS011;38420;53.150;6.370;2024-01-30T10:12:08;12.40;;;6.43;;
52508;SDS011;38420;53.150;6.370;2024-01-30T10:14:37;13.18;;;5.53;;
52508;SDS011;38420;53.150;6.370;2024-01-30T10:17:09;12.20;;;6.68;;
52508;SDS011;38420;53.150;6.370;2024-01-30T10:19:36;16.30;;;6.43;;
52508;SDS011;38420;53.150;6.370;2024-01-30T10:22:06;12.73;;;5.97;;
52508;SDS011;38420;53.150;6.370;2024-01-30T10:24:35;17.85;;;8.05;;
52508;SDS011;38420;53.150;6.370;2024-01-30T10:27:02;13.93;;;6.72;;
52508;SDS011;38420;53.150;6.370;2024-01-30T10:29:28;13.18;;;5.93;;
52508;SDS011;38420;53.150;6.370;2024-01-30T10:32:03;15.18;;;7.00;;
52508;SDS011;38420;53.150;6.370;2024-01-30T10:34:30;14.05;;;6.05;;
52508;SDS011;38420;53.150;6.370;2024-01-30T10:39:31;13.57;;;6.20;;
52508;SDS011;38420;53.150;6.370;2024-01-30T10:42:02;13.48;;;7.60;;
52508;SDS011;38420;53.150;6.370;2024-01-30T10:44:30;17.33;;;7.10;;
52508;SDS011;38420;53.150;6.370;2024-01-30T10:47:06;13.93;;;6.65;;
52508;SDS011;38420;53.150;6.370;2024-01-30T10:49:37;13.80;;;7.18;;
52508;SDS011;38420;53.150;6.370;2024-01-30T10:52:03;15.02;;;6.45;;
52508;SDS011;38420;53.150;6.370;2024-01-30T10:54:31;11.95;;;5.53;;
52508;SDS011;38420;53.150;6.370;2024-01-30T10:56:59;10.18;;;6.43;;
52508;SDS011;38420;53.150;6.370;2024-01-30T10:59:26;16.67;;;6.43;;
52508;SDS011;38420;53.150;6.370;2024-01-30T11:01:53;11.77;;;6.35;;
52508;SDS011;38420;53.150;6.370;2024-01-30T11:04:19;11.90;;;6.45;;
52508;SDS011;38420;53.150;6.370;2024-01-30T11:06:45;10.90;;;6.07;;
52508;SDS011;38420;53.150;6.370;2024-01-30T11:09:16;10.65;;;4.72;;
52508;SDS011;38420;53.150;6.370;2024-01-30T11:11:49;12.52;;;5.93;;
52508;SDS011;38420;53.150;6.370;2024-01-30T11:14:16;17.88;;;5.45;;
52508;SDS011;38420;53.150;6.370;2024-01-30T11:16:48;14.43;;;4.93;;
52508;SDS011;38420;53.150;6.370;2024-01-30T11:19:14;8.02;;;4.65;;
52508;SDS011;38420;53.150;6.370;2024-01-30T11:21:42;11.05;;;5.07;;
52508;SDS011;38420;53.150;6.370;2024-01-30T11:24:08;10.57;;;3.95;;
52508;SDS011;38420;53.150;6.370;2024-01-30T11:26:34;10.68;;;4.00;;
52508;SDS011;38420;53.150;6.370;2024-01-30T11:29:03;9.13;;;3.70;;
52508;SDS011;38420;53.150;6.370;2024-01-30T11:31:32;8.73;;;2.83;;
52508;SDS011;38420;53.150;6.370;2024-01-30T11:33:57;7.45;;;2.92;;
52508;SDS011;38420;53.150;6.370;2024-01-30T11:36:25;10.27;;;3.33;;
52508;SDS011;38420;53.150;6.370;2024-01-30T11:38:51;4.22;;;2.40;;
52508;SDS011;38420;53.150;6.370;2024-01-30T11:41:17;7.07;;;2.97;;
52508;SDS011;38420;53.150;6.370;2024-01-30T11:43:50;3.50;;;2.40;;
52508;SDS011;38420;53.150;6.370;2024-01-30T11:46:17;5.63;;;1.95;;
52508;SDS011;38420;53.150;6.370;2024-01-30T11:48:42;3.28;;;1.60;;
52508;SDS011;38420;53.150;6.370;2024-01-30T11:51:08;9.30;;;1.85;;
52508;SDS011;38420;53.150;6.370;2024-01-30T11:53:33;10.05;;;2.00;;
52508;SDS011;38420;53.150;6.370;2024-01-30T11:55:59;2.65;;;0.77;;
52508;SDS011;38420;53.150;6.370;2024-01-30T11:58:25;1.75;;;1.05;;
52508;SDS011;38420;53.150;6.370;2024-01-30T12:00:57;2.58;;;0.60;;
52508;SDS011;38420;53.150;6.370;2024-01-30T12:03:23;0.50;;;0.40;;
52508;SDS011;38420;53.150;6.370;2024-01-30T12:05:54;0.70;;;0.43;;
52508;SDS011;38420;53.150;6.370;2024-01-30T12:08:21;0.82;;;0.47;;
52508;SDS011;38420;53.150;6.370;2024-01-30T12:10:54;0.70;;;0.52;;
52508;SDS011;38420;53.150;6.370;2024-01-30T12:13:21;5.95;;;0.88;;
52508;SDS011;38420;53.150;6.370;2024-01-30T12:15:47;1.95;;;0.52;;
52508;SDS011;38420;53.150;6.370;2024-01-30T12:18:13;2.35;;;1.00;;
52508;SDS011;38420;53.150;6.370;2024-01-30T12:20:38;1.77;;;0.50;;
52508;SDS011;38420;53.150;6.370;2024-01-30T12:23:04;1.35;;;0.50;;
52508;SDS011;38420;53.150;6.370;2024-01-30T12:25:29;6.55;;;0.82;;
52508;SDS011;38420;53.150;6.370;2024-01-30T12:27:56;0.43;;;0.30;;
52508;SDS011;38420;53.150;6.370;2024-01-30T12:30:22;2.35;;;0.47;;
52508;SDS011;38420;53.150;6.370;2024-01-30T12:32:49;1.95;;;0.30;;
52508;SDS011;38420;53.150;6.370;2024-01-30T12:35:16;1.45;;;0.38;;
52508;SDS011;38420;53.150;6.370;2024-01-30T12:37:43;1.58;;;1.17;;
52508;SDS011;38420;53.150;6.370;2024-01-30T12:40:10;2.85;;;1.08;;
52508;SDS011;38420;53.150;6.370;2024-01-30T12:42:39;1.73;;;0.40;;
52508;SDS011;38420;53.150;6.370;2024-01-30T12:45:11;0.80;;;0.73;;
52508;SDS011;38420;53.150;6.370;2024-01-30T12:47:36;1.02;;;0.57;;
52508;SDS011;38420;53.150;6.370;2024-01-30T12:50:02;2.08;;;0.70;;
52508;SDS011;38420;53.150;6.370;2024-01-30T12:52:28;3.00;;;1.50;;
52508;SDS011;38420;53.150;6.370;2024-01-30T12:54:54;1.15;;;0.73;;
52508;SDS011;38420;53.150;6.370;2024-01-30T12:57:20;1.25;;;0.68;;
52508;SDS011;38420;53.150;6.370;2024-01-30T12:59:46;2.38;;;0.38;;
52508;SDS011;38420;53.150;6.370;2024-01-30T13:02:12;2.22;;;0.50;;
52508;SDS011;38420;53.150;6.370;2024-01-30T13:04:38;1.70;;;0.70;;
52508;SDS011;38420;53.150;6.370;2024-01-30T13:07:04;0.90;;;0.50;;
52508;SDS011;38420;53.150;6.370;2024-01-30T13:09:30;1.55;;;0.50;;
52508;SDS011;38420;53.150;6.370;2024-01-30T13:11:59;2.75;;;0.43;;
52508;SDS011;38420;53.150;6.370;2024-01-30T13:14:25;1.95;;;0.55;;
52508;SDS011;38420;53.150;6.370;2024-01-30T13:16:51;1.27;;;0.60;;
52508;SDS011;38420;53.150;6.370;2024-01-30T13:19:17;2.58;;;0.93;;
52508;SDS011;38420;53.150;6.370;2024-01-30T13:21:42;3.28;;;1.00;;
52508;SDS011;38420;53.150;6.370;2024-01-30T13:24:08;1.40;;;0.50;;
52508;SDS011;38420;53.150;6.370;2024-01-30T13:26:34;4.35;;;0.55;;
52508;SDS011;38420;53.150;6.370;2024-01-30T13:29:00;1.67;;;0.50;;
52508;SDS011;38420;53.150;6.370;2024-01-30T13:31:26;0.73;;;0.50;;
52508;SDS011;38420;53.150;6.370;2024-01-30T13:33:52;1.65;;;0.80;;
52508;SDS011;38420;53.150;6.370;2024-01-30T13:36:18;0.70;;;0.50;;
52508;SDS011;38420;53.150;6.370;2024-01-30T13:38:44;1.92;;;0.73;;
52508;SDS011;38420;53.150;6.370;2024-01-30T13:41:09;2.20;;;0.57;;
52508;SDS011;38420;53.150;6.370;2024-01-30T13:43:35;1.63;;;0.45;;
52508;SDS011;38420;53.150;6.370;2024-01-30T13:46:00;16.15;;;1.05;;
52508;SDS011;38420;53.150;6.370;2024-01-30T13:48:26;2.60;;;0.55;;
52508;SDS011;38420;53.150;6.370;2024-01-30T13:50:52;1.30;;;0.70;;
52508;SDS011;38420;53.150;6.370;2024-01-30T13:53:18;3.40;;;0.70;;
52508;SDS011;38420;53.150;6.370;2024-01-30T13:55:44;0.65;;;0.43;;
52508;SDS011;38420;53.150;6.370;2024-01-30T13:58:10;1.15;;;0.70;;
52508;SDS011;38420;53.150;6.370;2024-01-30T14:00:35;0.90;;;0.63;;
52508;SDS011;38420;53.150;6.370;2024-01-30T14:03:10;1.13;;;1.02;;
52508;SDS011;38420;53.150;6.370;2024-01-30T14:05:38;6.07;;;1.30;;
52508;SDS011;38420;53.150;6.370;2024-01-30T14:08:05;1.48;;;0.63;;
52508;SDS011;38420;53.150;6.370;2024-01-30T14:10:32;0.50;;;0.50;;
52508;SDS011;38420;53.150;6.370;2024-01-30T14:12:58;2.50;;;0.47;;
52508;SDS011;38420;53.150;6.370;2024-01-30T14:15:23;2.28;;;1.23;;
52508;SDS011;38420;53.150;6.370;2024-01-30T14:17:49;1.17;;;0.82;;
52508;SDS011;38420;53.150;6.370;2024-01-30T14:20:15;2.17;;;0.70;;
52508;SDS011;38420;53.150;6.370;2024-01-30T14:22:44;1.20;;;0.93;;
52508;SDS011;38420;53.150;6.370;2024-01-30T14:25:09;3.95;;;1.30;;
52508;SDS011;38420;53.150;6.370;2024-01-30T14:27:35;3.70;;;1.33;;